sensor_id;sensor_type;location;lat;lon;timestamp;P1;durP1;ratioP1;P2;durP2;ratioP2
39344;SDS011;25061;51.954;6.996;2023-04-23T00:00:00;39.40;;;25.45;;
39344;SDS011;25061;51.954;6.996;2023-04-23T05:31:01;56.17;;;26.80;;
39344;SDS011;25061;51.954;6.996;2023-04-23T05:33:27;56.25;;;27.13;;
39344;SDS011;25061;51.954;6.996;2023-04-23T05:35:52;50.47;;;24.48;;
39344;SDS011;25061;51.954;6.996;2023-04-23T05:38:19;53.13;;;24.70;;
39344;SDS011;25061;51.954;6.996;2023-04-23T05:40:44;53.72;;;26.05;;
39344;SDS011;25061;51.954;6.996;2023-04-23T05:43:11;48.10;;;24.73;;
39344;SDS011;25061;51.954;6.996;2023-04-23T05:45:36;51.47;;;25.05;;
39344;SDS011;25061;51.954;6.996;2023-04-23T05:48:02;51.45;;;25.05;;
39344;SDS011;25061;51.954;6.996;2023-04-23T05:50:28;43.38;;;23.13;;
39344;SDS011;25061;51.954;6.996;2023-04-23T05:52:53;41.05;;;21.73;;
39344;SDS011;25061;51.954;6.996;2023-04-23T05:55:20;37.33;;;20.65;;
39344;SDS011;25061;51.954;6.996;2023-04-23T05:57:47;39.88;;;22.85;;
39344;SDS011;25061;51.954;6.996;2023-04-23T06:00:16;37.17;;;20.70;;
39344;SDS011;25061;51.954;6.996;2023-04-23T06:02:42;37.53;;;20.38;;
39344;SDS011;25061;51.954;6.996;2023-04-23T06:05:08;38.50;;;20.80;;
39344;SDS011;25061;51.954;6.996;2023-04-23T06:07:34;42.83;;;21.45;;
39344;SDS011;25061;51.954;6.996;2023-04-23T06:10:00;37.75;;;20.85;;
39344;SDS011;25061;51.954;6.996;2023-04-23T06:12:27;38.03;;;19.80;;
39344;SDS011;25061;51.954;6.996;2023-04-23T06:14:52;30.33;;;17.20;;
39344;SDS011;25061;51.954;6.996;2023-04-23T06:17:18;33.10;;;19.05;;
39344;SDS011;25061;51.954;6.996;2023-04-23T06:19:44;33.63;;;17.58;;
39344;SDS011;25061;51.954;6.996;2023-04-23T06:22:09;31.50;;;17.98;;
39344;SDS011;25061;51.954;6.996;2023-04-23T06:24:35;30.55;;;17.38;;
39344;SDS011;25061;51.954;6.996;2023-04-23T06:27:03;31.75;;;18.58;;
39344;SDS011;25061;51.954;6.996;2023-04-23T06:29:29;34.20;;;19.85;;
39344;SDS011;25061;51.954;6.996;2023-04-23T06:31:54;32.50;;;18.58;;
39344;SDS011;25061;51.954;6.996;2023-04-23T06:34:21;30.90;;;17.52;;
39344;SDS011;25061;51.954;6.996;2023-04-23T06:36:46;28.38;;;16.63;;
39344;SDS011;25061;51.954;6.996;2023-04-23T06:39:12;28.33;;;16.77;;
39344;SDS011;25061;51.954;6.996;2023-04-23T06:41:38;27.40;;;15.82;;
39344;SDS011;25061;51.954;6.996;2023-04-23T06:44:04;27.42;;;16.33;;
39344;SDS011;25061;51.954;6.996;2023-04-23T06:46:30;26.83;;;16.73;;
39344;SDS011;25061;51.954;6.996;2023-04-23T06:48:55;27.27;;;15.80;;
39344;SDS011;25061;51.954;6.996;2023-04-23T06:51:23;25.65;;;15.25;;
39344;SDS011;25061;51.954;6.996;2023-04-23T06:53:50;26.20;;;15.52;;
39344;SDS011;25061;51.954;6.996;2023-04-23T06:56:15;24.17;;;14.23;;
39344;SDS011;25061;51.954;6.996;2023-04-23T06:58:41;22.50;;;13.93;;
39344;SDS011;25061;51.954;6.996;2023-04-23T07:01:06;23.02;;;13.73;;
39344;SDS011;25061;51.954;6.996;2023-04-23T07:03:33;20.98;;;13.35;;
39344;SDS011;25061;51.954;6.996;2023-04-23T07:05:58;20.60;;;13.05;;
39344;SDS011;25061;51.954;6.996;2023-04-23T07:08:24;18.45;;;11.82;;
39344;SDS011;25061;51.954;6.996;2023-04-23T07:10:50;20.17;;;12.35;;
39344;SDS011;25061;51.954;6.996;2023-04-23T07:13:17;18.05;;;10.50;;
39344;SDS011;25061;51.954;6.996;2023-04-23T07:15:42;20.48;;;12.23;;
39344;SDS011;25061;51.954;6.996;2023-04-23T07:18:08;20.20;;;12.38;;
39344;SDS011;25061;51.954;6.996;2023-04-23T07:20:35;18.20;;;10.88;;
39344;SDS011;25061;51.954;6.996;2023-04-23T07:23:01;18.17;;;11.20;;
39344;SDS011;25061;51.954;6.996;2023-04-23T07:25:28;19.48;;;10.75;;
39344;SDS011;25061;51.954;6.996;2023-04-23T07:27:56;17.30;;;10.30;;
39344;SDS011;25061;51.954;6.996;2023-04-23T07:30:22;16.80;;;10.48;;
39344;SDS011;25061;51.954;6.996;2023-04-23T07:32:48;16.52;;;10.27;;
39344;SDS011;25061;51.954;6.996;2023-04-23T07:35:14;14.77;;;8.43;;
39344;SDS011;25061;51.954;6.996;2023-04-23T07:37:40;16.35;;;9.80;;
39344;SDS011;25061;51.954;6.996;2023-04-23T07:40:06;15.13;;;9.00;;
39344;SDS011;25061;51.954;6.996;2023-04-23T07:42:33;16.50;;;8.80;;
39344;SDS011;25061;51.954;6.996;2023-04-23T07:44:59;14.43;;;8.32;;
39344;SDS011;25061;51.954;6.996;2023-04-23T07:47:24;16.02;;;9.07;;
39344;SDS011;25061;51.954;6.996;2023-04-23T07:49:50;13.00;;;7.88;;
39344;SDS011;25061;51.954;6.996;2023-04-23T07:52:16;13.15;;;8.48;;
39344;SDS011;25061;51.954;6.996;2023-04-23T07:54:42;15.98;;;8.80;;
39344;SDS011;25061;51.954;6.996;2023-04-23T07:57:08;13.32;;;8.32;;
39344;SDS011;25061;51.954;6.996;2023-04-23T07:59:35;15.85;;;9.32;;
39344;SDS011;25061;51.954;6.996;2023-04-23T08:02:04;13.57;;;8.68;;
39344;SDS011;25061;51.954;6.996;2023-04-23T08:04:30;14.82;;;9.10;;
39344;SDS011;25061;51.954;6.996;2023-04-23T08:06:56;15.98;;;8.05;;
39344;SDS011;25061;51.954;6.996;2023-04-23T08:09:22;15.02;;;9.57;;
39344;SDS011;25061;51.954;6.996;2023-04-23T08:11:48;13.85;;;8.45;;
39344;SDS011;25061;51.954;6.996;2023-04-23T08:14:14;14.88;;;8.45;;
39344;SDS011;25061;51.954;6.996;2023-04-23T08:16:40;13.23;;;7.55;;
39344;SDS011;25061;51.954;6.996;2023-04-23T08:19:05;14.82;;;8.00;;
39344;SDS011;25061;51.954;6.996;2023-04-23T08:21:31;14.40;;;8.15;;
39344;SDS011;25061;51.954;6.996;2023-04-23T08:23:57;11.85;;;6.70;;
39344;SDS011;25061;51.954;6.996;2023-04-23T08:26:24;13.43;;;6.95;;
39344;SDS011;25061;51.954;6.996;2023-04-23T08:28:50;13.27;;;6.50;;
39344;SDS011;25061;51.954;6.996;2023-04-23T08:31:16;13.07;;;7.13;;
39344;SDS011;25061;51.954;6.996;2023-04-23T08:33:42;10.70;;;5.72;;
39344;SDS011;25061;51.954;6.996;2023-04-23T08:36:07;10.80;;;6.05;;
39344;SDS011;25061;51.954;6.996;2023-04-23T08:38:33;13.13;;;6.07;;
39344;SDS011;25061;51.954;6.996;2023-04-23T08:41:00;11.80;;;6.00;;
39344;SDS011;25061;51.954;6.996;2023-04-23T08:43:37;11.65;;;5.57;;
39344;SDS011;25061;51.954;6.996;2023-04-23T08:46:15;12.20;;;6.68;;
39344;SDS011;25061;51.954;6.996;2023-04-23T08:48:44;9.65;;;5.60;;
39344;SDS011;25061;51.954;6.996;2023-04-23T08:51:12;10.15;;;5.93;;
39344;SDS011;25061;51.954;6.996;2023-04-23T08:53:43;12.30;;;6.72;;
39344;SDS011;25061;51.954;6.996;2023-04-23T08:56:11;11.57;;;6.65;;
39344;SDS011;25061;51.954;6.996;2023-04-23T08:58:38;10.70;;;5.63;;
39344;SDS011;25061;51.954;6.996;2023-04-23T09:01:05;11.75;;;5.55;;
39344;SDS011;25061;51.954;6.996;2023-04-23T09:03:35;11.48;;;5.47;;
39344;SDS011;25061;51.954;6.996;2023-04-23T09:06:02;10.10;;;5.60;;
39344;SDS011;25061;51.954;6.996;2023-04-23T09:08:29;12.38;;;5.38;;
39344;SDS011;25061;51.954;6.996;2023-04-23T09:10:56;11.32;;;5.68;;
39344;SDS011;25061;51.954;6.996;2023-04-23T09:13:24;12.07;;;5.25;;
39344;SDS011;25061;51.954;6.996;2023-04-23T09:15:50;10.77;;;4.75;;
39344;SDS011;25061;51.954;6.996;2023-04-23T09:18:16;12.13;;;5.72;;
39344;SDS011;25061;51.954;6.996;2023-04-23T09:20:43;12.10;;;5.43;;
39344;SDS011;25061;51.954;6.996;2023-04-23T09:23:12;11.15;;;5.63;;
39344;SDS011;25061;51.954;6.996;2023-04-23T09:25:38;11.85;;;4.97;;
39344;SDS011;25061;51.954;6.996;2023-04-23T09:28:05;10.23;;;4.85;;
39344;SDS011;25061;51.954;6.996;2023-04-23T09:30:37;9.23;;;4.45;;
39344;SDS011;25061;51.954;6.996;2023-04-23T09:33:04;12.98;;;5.47;;
39344;SDS011;25061;51.954;6.996;2023-04-23T09:35:31;10.30;;;5.00;;
39344;SDS011;25061;51.954;6.996;2023-04-23T09:37:59;8.98;;;4.72;;
39344;SDS011;25061;51.954;6.996;2023-04-23T09:40:29;10.30;;;4.53;;
39344;SDS011;25061;51.954;6.996;2023-04-23T09:42:56;8.95;;;3.90;;
39344;SDS011;25061;51.954;6.996;2023-04-23T09:45:21;9.45;;;3.88;;
39344;SDS011;25061;51.954;6.996;2023-04-23T09:47:51;11.20;;;4.28;;
39344;SDS011;25061;51.954;6.996;2023-04-23T09:50:18;8.00;;;3.60;;
39344;SDS011;25061;51.954;6.996;2023-04-23T09:52:44;8.20;;;3.10;;
39344;SDS011;25061;51.954;6.996;2023-04-23T09:55:25;9.52;;;2.88;;
39344;SDS011;25061;51.954;6.996;2023-04-23T09:58:00;8.18;;;3.28;;
39344;SDS011;25061;51.954;6.996;2023-04-23T10:00:27;8.27;;;3.53;;
39344;SDS011;25061;51.954;6.996;2023-04-23T10:03:00;10.68;;;3.80;;
39344;SDS011;25061;51.954;6.996;2023-04-23T10:05:26;7.43;;;2.78;;
39344;SDS011;25061;51.954;6.996;2023-04-23T10:07:56;12.75;;;3.65;;
39344;SDS011;25061;51.954;6.996;2023-04-23T10:10:22;8.45;;;3.15;;
39344;SDS011;25061;51.954;6.996;2023-04-23T10:12:48;9.63;;;3.50;;
39344;SDS011;25061;51.954;6.996;2023-04-23T10:15:17;7.38;;;3.22;;
39344;SDS011;25061;51.954;6.996;2023-04-23T10:17:43;10.00;;;2.80;;
39344;SDS011;25061;51.954;6.996;2023-04-23T10:20:11;7.78;;;2.88;;
39344;SDS011;25061;51.954;6.996;2023-04-23T10:22:38;7.18;;;2.30;;
39344;SDS011;25061;51.954;6.996;2023-04-23T10:25:09;8.73;;;2.08;;
39344;SDS011;25061;51.954;6.996;2023-04-23T10:27:39;6.57;;;2.00;;
39344;SDS011;25061;51.954;6.996;2023-04-23T10:30:07;8.18;;;1.83;;
39344;SDS011;25061;51.954;6.996;2023-04-23T10:32:35;6.68;;;2.17;;
39344;SDS011;25061;51.954;6.996;2023-04-23T10:35:06;15.65;;;5.75;;
39344;SDS011;25061;51.954;6.996;2023-04-23T10:37:35;7.68;;;2.50;;
39344;SDS011;25061;51.954;6.996;2023-04-23T10:42:39;9.48;;;1.90;;
39344;SDS011;25061;51.954;6.996;2023-04-23T10:47:41;6.82;;;2.15;;
39344;SDS011;25061;51.954;6.996;2023-04-23T10:50:17;6.03;;;2.00;;
39344;SDS011;25061;51.954;6.996;2023-04-23T10:52:45;7.97;;;1.90;;
39344;SDS011;25061;51.954;6.996;2023-04-23T10:55:15;6.10;;;1.42;;
39344;SDS011;25061;51.954;6.996;2023-04-23T11:06:10;7.07;;;1.73;;
39344;SDS011;25061;51.954;6.996;2023-04-23T11:08:39;8.20;;;1.80;;
39344;SDS011;25061;51.954;6.996;2023-04-23T11:11:17;7.85;;;1.70;;
39344;SDS011;25061;51.954;6.996;2023-04-23T11:13:51;7.07;;;1.70;;
39344;SDS011;25061;51.954;6.996;2023-04-23T11:16:21;7.63;;;1.80;;
39344;SDS011;25061;51.954;6.996;2023-04-23T11:18:54;7.22;;;1.45;;
39344;SDS011;25061;51.954;6.996;2023-04-23T11:26:57;7.90;;;1.88;;
39344;SDS011;25061;51.954;6.996;2023-04-23T11:29:24;8.15;;;1.60;;
39344;SDS011;25061;51.954;6.996;2023-04-23T11:31:51;8.77;;;2.10;;
39344;SDS011;25061;51.954;6.996;2023-04-23T11:34:18;5.20;;;1.60;;
39344;SDS011;25061;51.954;6.996;2023-04-23T11:36:44;6.50;;;1.33;;
39344;SDS011;25061;51.954;6.996;2023-04-23T11:39:12;7.18;;;1.98;;
39344;SDS011;25061;51.954;6.996;2023-04-23T11:41:38;6.30;;;1.35;;
39344;SDS011;25061;51.954;6.996;2023-04-23T11:44:03;6.65;;;1.70;;
39344;SDS011;25061;51.954;6.996;2023-04-23T11:46:30;6.35;;;1.50;;
39344;SDS011;25061;51.954;6.996;2023-04-23T11:48:58;6.50;;;1.75;;
39344;SDS011;25061;51.954;6.996;2023-04-23T11:51:24;5.90;;;1.60;;
39344;SDS011;25061;51.954;6.996;2023-04-23T11:53:50;7.38;;;1.70;;
39344;SDS011;25061;51.954;6.996;2023-04-23T11:56:16;7.13;;;2.00;;
39344;SDS011;25061;51.954;6.996;2023-04-23T11:58:42;6.32;;;1.55;;
39344;SDS011;25061;51.954;6.996;2023-04-23T12:01:11;8.50;;;1.70;;
39344;SDS011;25061;51.954;6.996;2023-04-23T12:03:37;7.80;;;2.15;;
39344;SDS011;25061;51.954;6.996;2023-04-23T12:06:04;5.38;;;1.48;;
39344;SDS011;25061;51.954;6.996;2023-04-23T12:08:33;7.53;;;1.80;;
39344;SDS011;25061;51.954;6.996;2023-04-23T12:11:00;6.78;;;1.55;;
39344;SDS011;25061;51.954;6.996;2023-04-23T12:13:28;6.10;;;1.85;;
39344;SDS011;25061;51.954;6.996;2023-04-23T12:15:56;7.13;;;1.88;;
39344;SDS011;25061;51.954;6.996;2023-04-23T12:18:33;7.85;;;1.77;;
39344;SDS011;25061;51.954;6.996;2023-04-23T12:21:06;7.80;;;1.45;;
39344;SDS011;25061;51.954;6.996;2023-04-23T12:23:34;6.25;;;1.30;;
39344;SDS011;25061;51.954;6.996;2023-04-23T12:26:08;7.15;;;1.90;;
39344;SDS011;25061;51.954;6.996;2023-04-23T12:28:48;9.60;;;1.73;;
39344;SDS011;25061;51.954;6.996;2023-04-23T12:31:22;6.88;;;1.20;;
39344;SDS011;25061;51.954;6.996;2023-04-23T12:34:05;9.75;;;1.77;;
39344;SDS011;25061;51.954;6.996;2023-04-23T12:36:32;7.97;;;1.83;;
39344;SDS011;25061;51.954;6.996;2023-04-23T12:41:59;7.65;;;1.52;;
39344;SDS011;25061;51.954;6.996;2023-04-23T12:44:30;6.57;;;1.70;;
39344;SDS011;25061;51.954;6.996;2023-04-23T12:46:58;5.88;;;1.58;;
39344;SDS011;25061;51.954;6.996;2023-04-23T12:49:25;6.13;;;1.52;;
39344;SDS011;25061;51.954;6.996;2023-04-23T12:51:51;7.40;;;1.50;;
39344;SDS011;25061;51.954;6.996;2023-04-23T12:54:21;5.97;;;1.33;;
39344;SDS011;25061;51.954;6.996;2023-04-23T12:56:50;5.55;;;1.52;;
39344;SDS011;25061;51.954;6.996;2023-04-23T12:59:16;5.55;;;1.20;;
39344;SDS011;25061;51.954;6.996;2023-04-23T13:01:41;8.98;;;1.88;;
39344;SDS011;25061;51.954;6.996;2023-04-23T13:04:07;6.45;;;1.42;;
39344;SDS011;25061;51.954;6.996;2023-04-23T13:06:32;8.07;;;1.65;;
39344;SDS011;25061;51.954;6.996;2023-04-23T13:08:58;7.25;;;1.65;;
39344;SDS011;25061;51.954;6.996;2023-04-23T13:11:27;5.95;;;1.50;;
39344;SDS011;25061;51.954;6.996;2023-04-23T13:13:53;6.38;;;1.70;;
39344;SDS011;25061;51.954;6.996;2023-04-23T13:16:18;8.40;;;2.03;;
39344;SDS011;25061;51.954;6.996;2023-04-23T13:18:45;8.25;;;1.88;;
39344;SDS011;25061;51.954;6.996;2023-04-23T13:21:11;5.55;;;1.67;;
39344;SDS011;25061;51.954;6.996;2023-04-23T13:23:36;7.53;;;2.30;;
39344;SDS011;25061;51.954;6.996;2023-04-23T13:26:02;7.53;;;1.95;;
39344;SDS011;25061;51.954;6.996;2023-04-23T13:28:30;4.80;;;1.50;;
39344;SDS011;25061;51.954;6.996;2023-04-23T13:30:57;8.05;;;2.17;;
39344;SDS011;25061;51.954;6.996;2023-04-23T13:33:22;11.38;;;2.20;;
39344;SDS011;25061;51.954;6.996;2023-04-23T13:35:48;5.00;;;1.90;;
39344;SDS011;25061;51.954;6.996;2023-04-23T13:38:13;8.20;;;1.92;;
39344;SDS011;25061;51.954;6.996;2023-04-23T13:40:39;5.93;;;2.00;;
39344;SDS011;25061;51.954;6.996;2023-04-23T13:43:05;5.40;;;1.70;;
39344;SDS011;25061;51.954;6.996;2023-04-23T13:45:30;6.82;;;1.80;;
39344;SDS011;25061;51.954;6.996;2023-04-23T13:47:58;7.47;;;1.60;;
39344;SDS011;25061;51.954;6.996;2023-04-23T13:50:26;4.60;;;1.80;;
39344;SDS011;25061;51.954;6.996;2023-04-23T13:52:53;5.43;;;1.88;;
39344;SDS011;25061;51.954;6.996;2023-04-23T13:55:19;5.93;;;1.88;;
39344;SDS011;25061;51.954;6.996;2023-04-23T13:57:44;5.07;;;2.00;;
39344;SDS011;25061;51.954;6.996;2023-04-23T14:00:10;4.88;;;1.73;;
39344;SDS011;25061;51.954;6.996;2023-04-23T14:02:37;5.63;;;1.90;;
39344;SDS011;25061;51.954;6.996;2023-04-23T14:05:03;6.90;;;1.65;;
39344;SDS011;25061;51.954;6.996;2023-04-23T14:07:30;4.72;;;2.03;;
39344;SDS011;25061;51.954;6.996;2023-04-23T14:09:56;4.15;;;1.40;;
39344;SDS011;25061;51.954;6.996;2023-04-23T14:12:22;5.63;;;1.80;;
39344;SDS011;25061;51.954;6.996;2023-04-23T14:14:49;6.88;;;1.77;;
39344;SDS011;25061;51.954;6.996;2023-04-23T14:17:15;5.85;;;1.50;;
39344;SDS011;25061;51.954;6.996;2023-04-23T14:19:40;5.43;;;1.65;;
39344;SDS011;25061;51.954;6.996;2023-04-23T14:22:06;6.13;;;2.05;;
39344;SDS011;25061;51.954;6.996;2023-04-23T14:24:33;4.93;;;1.40;;
39344;SDS011;25061;51.954;6.996;2023-04-23T14:27:08;6.25;;;1.58;;
39344;SDS011;25061;51.954;6.996;2023-04-23T14:32:06;5.05;;;1.35;;
39344;SDS011;25061;51.954;6.996;2023-04-23T14:34:32;5.00;;;1.38;;
39344;SDS011;25061;51.954;6.996;2023-04-23T14:37:01;5.05;;;1.27;;
39344;SDS011;25061;51.954;6.996;2023-04-23T14:39:27;4.63;;;0.93;;
39344;SDS011;25061;51.954;6.996;2023-04-23T14:41:53;7.30;;;1.25;;
39344;SDS011;25061;51.954;6.996;2023-04-23T14:44:20;7.43;;;2.38;;
39344;SDS011;25061;51.954;6.996;2023-04-23T14:46:50;5.15;;;1.08;;
39344;SDS011;25061;51.954;6.996;2023-04-23T14:49:17;4.35;;;0.90;;
39344;SDS011;25061;51.954;6.996;2023-04-23T14:51:44;5.22;;;1.20;;
39344;SDS011;25061;51.954;6.996;2023-04-23T14:54:22;5.35;;;1.40;;
39344;SDS011;25061;51.954;6.996;2023-04-23T14:56:51;4.95;;;1.30;;
39344;SDS011;25061;51.954;6.996;2023-04-23T14:59:17;4.72;;;1.00;;
39344;SDS011;25061;51.954;6.996;2023-04-23T15:01:43;4.90;;;0.98;;
39344;SDS011;25061;51.954;6.996;2023-04-23T15:04:09;4.43;;;1.15;;
39344;SDS011;25061;51.954;6.996;2023-04-23T15:06:35;3.25;;;1.10;;
39344;SDS011;25061;51.954;6.996;2023-04-23T15:09:02;4.35;;;1.02;;
39344;SDS011;25061;51.954;6.996;2023-04-23T15:11:28;5.47;;;1.20;;
39344;SDS011;25061;51.954;6.996;2023-04-23T15:13:55;6.38;;;1.20;;
39344;SDS011;25061;51.954;6.996;2023-04-23T15:16:29;4.10;;;1.13;;
39344;SDS011;25061;51.954;6.996;2023-04-23T15:18:57;4.28;;;1.20;;
39344;SDS011;25061;51.954;6.996;2023-04-23T15:21:24;3.33;;;1.00;;
39344;SDS011;25061;51.954;6.996;2023-04-23T15:23:52;7.30;;;2.05;;
39344;SDS011;25061;51.954;6.996;2023-04-23T15:26:18;6.55;;;1.90;;
39344;SDS011;25061;51.954;6.996;2023-04-23T15:28:45;5.50;;;1.67;;
39344;SDS011;25061;51.954;6.996;2023-04-23T15:31:11;11.75;;;5.55;;
39344;SDS011;25061;51.954;6.996;2023-04-23T15:33:36;4.97;;;1.00;;
39344;SDS011;25061;51.954;6.996;2023-04-23T15:36:02;6.35;;;2.20;;
39344;SDS011;25061;51.954;6.996;2023-04-23T15:38:29;3.65;;;1.00;;
39344;SDS011;25061;51.954;6.996;2023-04-23T15:40:56;3.70;;;0.85;;
39344;SDS011;25061;51.954;6.996;2023-04-23T15:43:21;2.28;;;0.88;;
39344;SDS011;25061;51.954;6.996;2023-04-23T15:45:47;2.35;;;0.80;;
39344;SDS011;25061;51.954;6.996;2023-04-23T15:48:14;3.45;;;0.88;;
39344;SDS011;25061;51.954;6.996;2023-04-23T15:50:41;7.60;;;1.27;;
39344;SDS011;25061;51.954;6.996;2023-04-23T15:53:08;5.00;;;1.10;;
39344;SDS011;25061;51.954;6.996;2023-04-23T15:55:34;2.97;;;0.95;;
39344;SDS011;25061;51.954;6.996;2023-04-23T15:58:01;2.80;;;1.10;;
39344;SDS011;25061;51.954;6.996;2023-04-23T16:00:29;5.10;;;0.98;;
39344;SDS011;25061;51.954;6.996;2023-04-23T16:02:57;4.28;;;1.42;;
39344;SDS011;25061;51.954;6.996;2023-04-23T16:05:32;4.18;;;0.90;;
39344;SDS011;25061;51.954;6.996;2023-04-23T16:08:00;4.30;;;1.05;;
39344;SDS011;25061;51.954;6.996;2023-04-23T16:10:26;6.07;;;1.42;;
39344;SDS011;25061;51.954;6.996;2023-04-23T16:12:53;4.43;;;0.90;;
39344;SDS011;25061;51.954;6.996;2023-04-23T16:15:19;3.97;;;1.08;;
39344;SDS011;25061;51.954;6.996;2023-04-23T16:17:45;4.07;;;1.17;;
39344;SDS011;25061;51.954;6.996;2023-04-23T16:20:11;4.65;;;1.15;;
39344;SDS011;25061;51.954;6.996;2023-04-23T16:22:38;5.20;;;1.13;;
39344;SDS011;25061;51.954;6.996;2023-04-23T16:25:04;4.00;;;1.15;;
39344;SDS011;25061;51.954;6.996;2023-04-23T16:27:30;1.60;;;0.68;;
39344;SDS011;25061;51.954;6.996;2023-04-23T16:29:56;3.78;;;1.00;;
39344;SDS011;25061;51.954;6.996;2023-04-23T16:32:21;2.70;;;0.85;;
39344;SDS011;25061;51.954;6.996;2023-04-23T16:34:48;2.08;;;0.70;;
39344;SDS011;25061;51.954;6.996;2023-04-23T16:37:13;3.92;;;0.95;;
39344;SDS011;25061;51.954;6.996;2023-04-23T16:39:43;3.08;;;0.90;;
39344;SDS011;25061;51.954;6.996;2023-04-23T16:42:09;5.60;;;1.50;;
39344;SDS011;25061;51.954;6.996;2023-04-23T16:44:35;7.22;;;1.70;;
39344;SDS011;25061;51.954;6.996;2023-04-23T16:47:00;6.15;;;1.45;;
39344;SDS011;25061;51.954;6.996;2023-04-23T16:49:27;3.85;;;1.38;;
39344;SDS011;25061;51.954;6.996;2023-04-23T16:51:53;4.55;;;1.35;;
39344;SDS011;25061;51.954;6.996;2023-04-23T16:54:20;5.82;;;1.55;;
39344;SDS011;25061;51.954;6.996;2023-04-23T16:56:45;4.65;;;1.50;;
39344;SDS011;25061;51.954;6.996;2023-04-23T16:59:11;6.57;;;1.70;;
39344;SDS011;25061;51.954;6.996;2023-04-23T17:01:39;8.00;;;1.77;;
39344;SDS011;25061;51.954;6.996;2023-04-23T17:04:05;8.10;;;2.05;;
39344;SDS011;25061;51.954;6.996;2023-04-23T17:06:32;6.20;;;1.98;;
39344;SDS011;25061;51.954;6.996;2023-04-23T17:08:58;8.55;;;2.50;;
39344;SDS011;25061;51.954;6.996;2023-04-23T17:11:26;6.90;;;1.92;;
39344;SDS011;25061;51.954;6.996;2023-04-23T17:13:53;6.68;;;1.30;;
39344;SDS011;25061;51.954;6.996;2023-04-23T17:16:20;4.50;;;1.25;;
39344;SDS011;25061;51.954;6.996;2023-04-23T17:18:47;5.22;;;1.65;;
39344;SDS011;25061;51.954;6.996;2023-04-23T17:21:14;6.10;;;1.80;;
39344;SDS011;25061;51.954;6.996;2023-04-23T17:23:39;7.45;;;1.75;;
39344;SDS011;25061;51.954;6.996;2023-04-23T17:26:05;6.72;;;1.75;;
39344;SDS011;25061;51.954;6.996;2023-04-23T17:28:31;5.18;;;1.60;;
39344;SDS011;25061;51.954;6.996;2023-04-23T17:30:57;6.72;;;1.52;;
39344;SDS011;25061;51.954;6.996;2023-04-23T17:33:22;4.28;;;1.42;;
39344;SDS011;25061;51.954;6.996;2023-04-23T17:35:49;8.00;;;2.13;;
39344;SDS011;25061;51.954;6.996;2023-04-23T17:38:16;7.45;;;1.85;;
39344;SDS011;25061;51.954;6.996;2023-04-23T17:40:48;4.32;;;1.80;;
39344;SDS011;25061;51.954;6.996;2023-04-23T17:43:20;4.88;;;1.00;;
39344;SDS011;25061;51.954;6.996;2023-04-23T17:45:46;6.13;;;1.50;;
39344;SDS011;25061;51.954;6.996;2023-04-23T17:48:12;5.93;;;2.17;;
39344;SDS011;25061;51.954;6.996;2023-04-23T17:50:39;6.53;;;1.55;;
39344;SDS011;25061;51.954;6.996;2023-04-23T17:53:09;6.75;;;1.90;;
39344;SDS011;25061;51.954;6.996;2023-04-23T17:55:34;4.47;;;1.60;;
39344;SDS011;25061;51.954;6.996;2023-04-23T17:58:00;4.43;;;1.70;;
39344;SDS011;25061;51.954;6.996;2023-04-23T18:00:39;5.72;;;2.50;;
39344;SDS011;25061;51.954;6.996;2023-04-23T18:03:06;7.03;;;2.03;;
39344;SDS011;25061;51.954;6.996;2023-04-23T18:05:33;7.45;;;1.60;;
39344;SDS011;25061;51.954;6.996;2023-04-23T18:08:00;5.68;;;1.50;;
39344;SDS011;25061;51.954;6.996;2023-04-23T18:10:26;6.13;;;1.75;;
39344;SDS011;25061;51.954;6.996;2023-04-23T18:12:52;4.55;;;1.45;;
39344;SDS011;25061;51.954;6.996;2023-04-23T18:15:19;5.28;;;1.67;;
39344;SDS011;25061;51.954;6.996;2023-04-23T18:17:45;4.32;;;1.50;;
39344;SDS011;25061;51.954;6.996;2023-04-23T18:20:11;4.88;;;2.10;;
39344;SDS011;25061;51.954;6.996;2023-04-23T18:22:37;5.07;;;1.50;;
39344;SDS011;25061;51.954;6.996;2023-04-23T18:25:05;5.10;;;1.70;;
39344;SDS011;25061;51.954;6.996;2023-04-23T18:27:33;5.95;;;2.30;;
39344;SDS011;25061;51.954;6.996;2023-04-23T18:30:02;6.60;;;2.38;;
39344;SDS011;25061;51.954;6.996;2023-04-23T18:32:33;6.97;;;2.00;;
39344;SDS011;25061;51.954;6.996;2023-04-23T18:35:00;4.40;;;1.70;;
39344;SDS011;25061;51.954;6.996;2023-04-23T18:37:36;5.47;;;1.80;;
39344;SDS011;25061;51.954;6.996;2023-04-23T18:40:07;7.05;;;2.03;;
39344;SDS011;25061;51.954;6.996;2023-04-23T18:42:35;5.03;;;2.05;;
39344;SDS011;25061;51.954;6.996;2023-04-23T18:45:01;6.00;;;2.05;;
39344;SDS011;25061;51.954;6.996;2023-04-23T18:47:31;5.28;;;2.08;;
39344;SDS011;25061;51.954;6.996;2023-04-23T18:53:00;6.75;;;2.30;;
39344;SDS011;25061;51.954;6.996;2023-04-23T18:55:26;8.00;;;2.08;;
39344;SDS011;25061;51.954;6.996;2023-04-23T18:57:52;5.35;;;2.10;;
39344;SDS011;25061;51.954;6.996;2023-04-23T19:00:19;5.20;;;2.30;;
39344;SDS011;25061;51.954;6.996;2023-04-23T19:02:45;5.47;;;2.30;;
39344;SDS011;25061;51.954;6.996;2023-04-23T19:05:11;5.65;;;2.50;;
39344;SDS011;25061;51.954;6.996;2023-04-23T19:07:37;5.28;;;2.20;;
39344;SDS011;25061;51.954;6.996;2023-04-23T19:10:05;8.75;;;3.38;;
39344;SDS011;25061;51.954;6.996;2023-04-23T19:12:31;5.32;;;2.10;;
39344;SDS011;25061;51.954;6.996;2023-04-23T19:14:57;6.35;;;2.22;;
39344;SDS011;25061;51.954;6.996;2023-04-23T19:17:22;8.43;;;2.38;;
39344;SDS011;25061;51.954;6.996;2023-04-23T19:19:48;5.88;;;1.95;;
39344;SDS011;25061;51.954;6.996;2023-04-23T19:22:13;7.03;;;2.10;;
39344;SDS011;25061;51.954;6.996;2023-04-23T19:24:39;4.50;;;2.25;;
39344;SDS011;25061;51.954;6.996;2023-04-23T19:27:05;6.47;;;2.03;;
39344;SDS011;25061;51.954;6.996;2023-04-23T19:29:31;6.40;;;2.28;;
39344;SDS011;25061;51.954;6.996;2023-04-23T19:31:56;6.15;;;2.03;;
39344;SDS011;25061;51.954;6.996;2023-04-23T19:34:25;5.50;;;1.90;;
39344;SDS011;25061;51.954;6.996;2023-04-23T19:36:51;4.90;;;1.92;;
39344;SDS011;25061;51.954;6.996;2023-04-23T19:39:16;4.47;;;1.90;;
39344;SDS011;25061;51.954;6.996;2023-04-23T19:41:42;4.68;;;1.92;;
39344;SDS011;25061;51.954;6.996;2023-04-23T19:44:08;4.72;;;1.92;;
39344;SDS011;25061;51.954;6.996;2023-04-23T19:46:34;7.53;;;2.35;;
39344;SDS011;25061;51.954;6.996;2023-04-23T19:48:59;5.45;;;1.98;;
39344;SDS011;25061;51.954;6.996;2023-04-23T19:51:26;4.70;;;2.17;;
39344;SDS011;25061;51.954;6.996;2023-04-23T19:54:00;5.63;;;1.90;;
39344;SDS011;25061;51.954;6.996;2023-04-23T19:56:31;5.85;;;2.20;;
39344;SDS011;25061;51.954;6.996;2023-04-23T19:59:00;4.75;;;1.92;;
39344;SDS011;25061;51.954;6.996;2023-04-23T20:01:25;5.05;;;2.10;;
39344;SDS011;25061;51.954;6.996;2023-04-23T20:03:56;4.95;;;2.30;;
39344;SDS011;25061;51.954;6.996;2023-04-23T20:06:22;6.32;;;2.40;;
39344;SDS011;25061;51.954;6.996;2023-04-23T20:08:47;5.10;;;1.98;;
39344;SDS011;25061;51.954;6.996;2023-04-23T20:11:34;5.78;;;2.28;;
39344;SDS011;25061;51.954;6.996;2023-04-23T20:14:00;5.63;;;2.30;;
39344;SDS011;25061;51.954;6.996;2023-04-23T20:16:27;5.22;;;2.17;;
39344;SDS011;25061;51.954;6.996;2023-04-23T20:18:53;8.23;;;3.15;;
39344;SDS011;25061;51.954;6.996;2023-04-23T20:21:22;6.10;;;2.30;;
39344;SDS011;25061;51.954;6.996;2023-04-23T20:23:48;9.90;;;2.95;;
39344;SDS011;25061;51.954;6.996;2023-04-23T20:26:15;6.05;;;2.40;;
39344;SDS011;25061;51.954;6.996;2023-04-23T20:28:46;7.13;;;2.40;;
39344;SDS011;25061;51.954;6.996;2023-04-23T20:31:13;5.20;;;2.22;;
39344;SDS011;25061;51.954;6.996;2023-04-23T20:33:39;4.43;;;1.92;;
39344;SDS011;25061;51.954;6.996;2023-04-23T20:36:06;7.35;;;2.58;;